createdAt,value
2022-10-06T00:00:33.993Z,7.14
2022-10-06T00:03:00.914Z,7.16
2022-10-06T00:05:28.020Z,7.14
2022-10-06T00:07:54.665Z,7.13
2022-10-06T00:10:22.028Z,7.08
2022-10-06T00:12:51.366Z,7.04
2022-10-06T00:15:22.957Z,6.99
2022-10-06T00:17:50.142Z,6.95
2022-10-06T00:20:17.883Z,6.91
2022-10-06T00:22:46.908Z,6.89
2022-10-06T00:25:19.802Z,6.91
2022-10-06T00:27:48.445Z,6.90
2022-10-06T00:30:18.576Z,6.90
2022-10-06T00:32:57.014Z,6.91
2022-10-06T00:35:29.721Z,6.88
2022-10-06T00:37:56.260Z,6.87
2022-10-06T00:40:23.482Z,6.85
2022-10-06T00:42:58.495Z,6.87
2022-10-06T00:45:41.794Z,6.83
2022-10-06T00:48:24.345Z,6.77
2022-10-06T00:50:53.872Z,6.72
2022-10-06T00:53:22.138Z,6.68
2022-10-06T00:55:48.743Z,6.75
2022-10-06T00:58:16.304Z,6.73
2022-10-06T01:00:44.383Z,6.66
2022-10-06T01:03:33.583Z,6.61
2022-10-06T01:06:01.939Z,6.57
2022-10-06T01:08:30.290Z,6.54
2022-10-06T01:10:57.275Z,6.50
2022-10-06T01:13:24.946Z,6.48
2022-10-06T01:15:59.007Z,6.43
2022-10-06T01:18:28.422Z,6.39
2022-10-06T01:21:04.191Z,6.37
2022-10-06T01:23:33.363Z,6.32
2022-10-06T01:26:03.589Z,6.25
2022-10-06T01:28:30.935Z,6.21
2022-10-06T01:30:58.812Z,6.16
2022-10-06T01:33:25.322Z,6.14
2022-10-06T01:35:52.991Z,6.11
2022-10-06T01:38:20.450Z,6.09
2022-10-06T01:40:48.118Z,6.11
2022-10-06T01:43:14.763Z,6.07
2022-10-06T01:45:41.306Z,6.04
2022-10-06T01:48:08.971Z,5.98
2022-10-06T01:50:35.490Z,5.92
2022-10-06T01:53:02.261Z,5.88
2022-10-06T01:55:28.730Z,5.85
2022-10-06T01:57:57.147Z,5.83
2022-10-06T02:00:23.835Z,5.82
2022-10-06T02:02:50.302Z,5.78
2022-10-06T02:05:16.932Z,5.72
2022-10-06T02:07:43.756Z,5.65
2022-10-06T02:10:10.301Z,5.57
2022-10-06T02:12:37.010Z,5.53
2022-10-06T02:15:04.259Z,5.48
2022-10-06T02:17:30.714Z,5.44
2022-10-06T02:19:57.437Z,5.40
2022-10-06T02:22:23.931Z,5.35
2022-10-06T02:24:50.370Z,5.30
2022-10-06T02:27:16.914Z,5.28
2022-10-06T02:29:43.351Z,5.28
2022-10-06T02:32:09.893Z,5.29
2022-10-06T02:34:36.437Z,5.26
2022-10-06T02:37:02.984Z,5.24
2022-10-06T02:39:29.524Z,5.23
2022-10-06T02:41:56.060Z,5.21
2022-10-06T02:44:22.502Z,5.18
2022-10-06T02:46:49.074Z,5.15
2022-10-06T02:49:15.891Z,5.15
2022-10-06T02:51:42.534Z,5.15
2022-10-06T02:54:08.994Z,5.13
2022-10-06T02:56:35.511Z,5.10
2022-10-06T02:59:02.052Z,5.07
2022-10-06T03:01:29.112Z,5.02
2022-10-06T03:03:56.644Z,4.99
2022-10-06T03:06:25.656Z,4.97
2022-10-06T03:08:58.205Z,4.93
2022-10-06T03:11:27.748Z,4.90
2022-10-06T03:13:54.611Z,4.86
2022-10-06T03:16:28.540Z,4.79
2022-10-06T03:18:56.500Z,4.75
2022-10-06T03:21:28.462Z,4.70
2022-10-06T03:23:55.837Z,4.68
2022-10-06T03:26:25.489Z,4.69
2022-10-06T03:28:51.990Z,4.71
2022-10-06T03:31:18.821Z,4.74
2022-10-06T03:33:45.368Z,4.72
2022-10-06T03:36:14.672Z,4.69
2022-10-06T03:38:41.963Z,4.64
2022-10-06T03:41:16.728Z,4.60
2022-10-06T03:43:44.962Z,4.57
2022-10-06T03:46:14.029Z,4.55
2022-10-06T03:48:40.643Z,4.51
2022-10-06T03:51:11.333Z,4.47
2022-10-06T03:53:37.870Z,4.43
2022-10-06T03:56:11.175Z,4.40
2022-10-06T03:58:40.724Z,4.39
2022-10-06T04:01:10.913Z,4.40
2022-10-06T04:03:37.409Z,4.40
2022-10-06T04:06:06.350Z,4.40
2022-10-06T04:08:34.287Z,4.38
2022-10-06T04:11:09.289Z,4.36
2022-10-06T04:13:36.320Z,4.38
2022-10-06T04:16:20.645Z,4.38
2022-10-06T04:18:50.537Z,4.34
2022-10-06T04:21:17.242Z,4.28
2022-10-06T04:23:44.190Z,4.23
2022-10-06T04:26:16.117Z,4.22
2022-10-06T04:28:44.303Z,4.24
2022-10-06T04:31:16.466Z,4.31
2022-10-06T04:33:44.515Z,4.36
2022-10-06T04:36:14.840Z,4.38
2022-10-06T04:38:41.664Z,4.39
2022-10-06T04:41:12.135Z,4.39
2022-10-06T04:43:39.052Z,4.40
2022-10-06T04:46:23.877Z,4.41
2022-10-06T04:48:53.875Z,4.41
2022-10-06T04:51:22.133Z,4.43
2022-10-06T04:53:48.808Z,4.44
2022-10-06T04:56:21.072Z,4.44
2022-10-06T04:58:49.931Z,4.45
2022-10-06T05:01:28.339Z,4.47
2022-10-06T05:03:56.746Z,4.49
2022-10-06T05:06:28.747Z,4.49
2022-10-06T05:08:58.083Z,4.49
2022-10-06T05:11:26.095Z,4.54
2022-10-06T05:13:55.198Z,4.59
2022-10-06T05:16:23.316Z,4.63
2022-10-06T05:18:50.060Z,4.68
2022-10-06T05:21:19.798Z,4.74
2022-10-06T05:23:47.157Z,4.81
2022-10-06T05:26:16.753Z,4.97
2022-10-06T05:28:43.724Z,5.27
2022-10-06T05:31:15.925Z,5.65
2022-10-06T05:33:42.886Z,6.03
2022-10-06T05:36:15.715Z,6.38
2022-10-06T05:38:42.941Z,6.79
2022-10-06T05:41:12.502Z,7.21
2022-10-06T05:43:40.209Z,7.67
2022-10-06T05:46:10.611Z,8.10
2022-10-06T05:48:37.086Z,8.52
2022-10-06T05:51:06.796Z,8.82
2022-10-06T05:53:35.093Z,9.05
2022-10-06T05:56:10.633Z,9.27
2022-10-06T05:58:39.428Z,9.40
2022-10-06T06:01:17.887Z,9.59
2022-10-06T06:03:52.770Z,9.88
2022-10-06T06:06:39.410Z,10.20
2022-10-06T06:09:17.107Z,10.30
2022-10-06T06:11:46.867Z,10.52
2022-10-06T06:14:15.715Z,10.67
2022-10-06T06:16:43.430Z,10.88
2022-10-06T06:19:12.103Z,11.10
2022-10-06T06:21:39.129Z,11.37
2022-10-06T06:24:06.469Z,11.72
2022-10-06T06:26:35.822Z,12.02
2022-10-06T06:29:03.359Z,12.31
2022-10-06T06:31:32.567Z,12.70
2022-10-06T06:34:00.674Z,13.15
2022-10-06T06:36:36.689Z,13.58
2022-10-06T06:39:06.321Z,13.90
2022-10-06T06:41:35.350Z,14.12
2022-10-06T06:44:02.061Z,14.39
2022-10-06T06:46:30.568Z,14.66
2022-10-06T06:48:58.459Z,14.80
2022-10-06T06:51:25.064Z,15.13
2022-10-06T06:53:52.646Z,15.27
2022-10-06T06:56:20.866Z,15.57
2022-10-06T06:58:47.749Z,15.99
2022-10-06T07:01:19.591Z,16.45
2022-10-06T07:03:57.740Z,16.86
2022-10-06T07:06:28.089Z,17.21
2022-10-06T07:08:56.185Z,17.47
2022-10-06T07:11:26.300Z,17.75
2022-10-06T07:13:55.197Z,18.12
2022-10-06T07:16:22.942Z,18.40
2022-10-06T07:18:49.482Z,18.51
2022-10-06T07:21:15.951Z,18.64
2022-10-06T07:23:42.765Z,18.94
2022-10-06T07:26:09.306Z,19.28
2022-10-06T07:28:35.883Z,19.65
2022-10-06T07:31:02.429Z,19.92
2022-10-06T07:33:29.038Z,19.93
2022-10-06T07:35:55.678Z,20.12
2022-10-06T07:38:22.163Z,20.21
2022-10-06T07:43:41.055Z,20.21
2022-10-06T07:46:11.931Z,20.46
2022-10-06T07:48:38.531Z,20.43
2022-10-06T07:51:12.490Z,20.62
2022-10-06T07:53:39.049Z,20.75
2022-10-06T07:56:07.219Z,20.82
2022-10-06T07:58:34.292Z,20.61
2022-10-06T08:01:06.955Z,20.46
2022-10-06T08:03:33.483Z,20.61
2022-10-06T08:06:02.097Z,20.68
2022-10-06T08:08:33.488Z,20.49
2022-10-06T08:11:01.812Z,20.28
2022-10-06T08:13:29.557Z,20.27
2022-10-06T08:15:56.313Z,20.38
2022-10-06T08:18:41.358Z,20.56
2022-10-06T08:21:10.733Z,20.65
2022-10-06T08:23:37.276Z,20.38
2022-10-06T08:26:03.737Z,20.24
2022-10-06T08:28:30.283Z,20.29
2022-10-06T08:30:56.843Z,20.19
2022-10-06T08:33:23.538Z,20.09
2022-10-06T08:35:50.079Z,19.92
2022-10-06T08:38:16.618Z,19.68
2022-10-06T08:40:45.398Z,19.57
2022-10-06T08:43:18.992Z,19.50
2022-10-06T08:45:47.637Z,19.68
2022-10-06T08:48:22.953Z,19.69
2022-10-06T08:51:21.411Z,19.54
2022-10-06T08:53:50.883Z,19.31
2022-10-06T08:56:22.851Z,19.33
2022-10-06T08:58:57.092Z,19.19
2022-10-06T09:01:36.373Z,19.07
2022-10-06T09:04:04.997Z,18.55
2022-10-06T09:06:44.351Z,18.22
2022-10-06T09:09:48.947Z,18.07
2022-10-06T09:12:34.532Z,18.09
2022-10-06T09:15:19.916Z,18.20
2022-10-06T09:18:07.550Z,18.21
2022-10-06T09:20:44.302Z,18.18
2022-10-06T09:23:17.046Z,18.17
2022-10-06T09:25:43.847Z,18.23
2022-10-06T09:28:15.150Z,18.25
2022-10-06T09:30:44.536Z,18.52
2022-10-06T09:33:21.532Z,18.80
2022-10-06T09:36:08.625Z,18.98
2022-10-06T09:38:57.421Z,18.77
2022-10-06T09:41:44.458Z,18.84
2022-10-06T09:44:26.247Z,18.98
2022-10-06T09:46:53.695Z,18.96
2022-10-06T09:49:24.906Z,18.96
2022-10-06T09:52:15.829Z,19.08
2022-10-06T09:54:43.912Z,19.29
2022-10-06T09:57:16.362Z,19.56
2022-10-06T09:59:45.728Z,19.80
2022-10-06T10:02:32.623Z,20.04
2022-10-06T10:04:59.273Z,20.34
2022-10-06T10:07:31.014Z,20.57
2022-10-06T10:10:20.831Z,20.96
2022-10-06T10:12:54.403Z,21.03
2022-10-06T10:15:20.836Z,21.00
2022-10-06T10:17:50.688Z,21.14
2022-10-06T10:20:31.408Z,21.16
2022-10-06T10:23:01.669Z,21.36
2022-10-06T10:25:53.940Z,21.71
2022-10-06T10:28:54.817Z,22.12
2022-10-06T10:31:49.324Z,22.41
2022-10-06T10:34:26.256Z,22.58
2022-10-06T10:36:59.850Z,22.68
2022-10-06T10:39:33.674Z,22.77
2022-10-06T10:42:05.293Z,22.81
2022-10-06T10:44:40.945Z,22.82
2022-10-06T10:47:23.091Z,23.05
2022-10-06T10:50:00.128Z,23.39
2022-10-06T10:52:31.844Z,23.59
2022-10-06T10:55:18.147Z,23.68
2022-10-06T10:57:46.241Z,23.58
2022-10-06T11:00:22.560Z,23.25
2022-10-06T11:02:53.006Z,23.18
2022-10-06T11:05:38.173Z,23.26
2022-10-06T11:08:32.659Z,23.17
2022-10-06T11:11:02.444Z,23.27
2022-10-06T11:13:42.338Z,23.28
2022-10-06T11:16:15.284Z,23.24
2022-10-06T11:19:09.612Z,23.31
2022-10-06T11:21:42.328Z,23.32
2022-10-06T11:24:41.342Z,23.23
2022-10-06T11:27:45.564Z,23.20
2022-10-06T11:30:17.495Z,23.39
2022-10-06T11:33:17.867Z,23.50
2022-10-06T11:35:46.782Z,23.52
2022-10-06T11:38:23.135Z,23.68
2022-10-06T11:41:31.045Z,23.92
2022-10-06T11:44:06.663Z,24.29
2022-10-06T11:46:52.581Z,24.31
2022-10-06T11:49:28.455Z,23.96
2022-10-06T11:51:59.617Z,23.82
2022-10-06T11:54:39.700Z,23.57
2022-10-06T11:57:30.554Z,23.22
2022-10-06T12:00:16.165Z,23.19
2022-10-06T12:02:45.181Z,23.39
2022-10-06T12:05:45.895Z,23.40
2022-10-06T12:08:01.244Z,23.57
2022-10-06T12:10:27.718Z,23.90
2022-10-06T12:13:31.732Z,24.01
2022-10-06T12:19:18.008Z,23.90
2022-10-06T12:22:09.176Z,23.37
2022-10-06T12:24:54.972Z,22.89
2022-10-06T12:27:30.485Z,22.71
2022-10-06T12:30:20.876Z,22.53
2022-10-06T12:33:00.933Z,22.46
2022-10-06T12:35:33.562Z,22.43
2022-10-06T12:38:06.319Z,22.24
2022-10-06T12:40:39.034Z,21.99
2022-10-06T12:43:14.581Z,21.83
2022-10-06T12:46:01.319Z,21.79
2022-10-06T12:48:37.979Z,21.65
2022-10-06T12:51:20.512Z,21.57
2022-10-06T12:54:05.467Z,21.49
2022-10-06T12:56:41.226Z,21.39
2022-10-06T12:59:18.604Z,21.21
2022-10-06T13:01:45.346Z,21.14
2022-10-06T13:04:39.452Z,21.08
2022-10-06T13:07:15.377Z,21.04
2022-10-06T13:09:42.874Z,20.99
2022-10-06T13:12:24.673Z,20.97
2022-10-06T13:15:09.239Z,20.96
2022-10-06T13:17:41.206Z,20.98
2022-10-06T13:20:19.403Z,21.04
2022-10-06T13:22:46.111Z,21.03
2022-10-06T13:25:14.325Z,21.13
2022-10-06T13:27:40.840Z,21.22
2022-10-06T13:30:19.516Z,21.26
2022-10-06T13:32:46.612Z,21.26
2022-10-06T13:35:13.627Z,21.22
2022-10-06T13:37:40.224Z,21.17
2022-10-06T13:40:21.749Z,21.23
2022-10-06T13:42:54.665Z,21.36
2022-10-06T13:45:23.530Z,21.47
2022-10-06T13:48:03.947Z,21.63
2022-10-06T13:50:30.530Z,21.80
2022-10-06T13:52:57.089Z,21.83
2022-10-06T13:55:26.417Z,21.90
2022-10-06T13:58:00.037Z,21.80
2022-10-06T14:00:32.264Z,21.67
2022-10-06T14:03:04.924Z,21.55
2022-10-06T14:05:41.865Z,21.49
2022-10-06T14:08:11.247Z,21.35
2022-10-06T14:10:40.375Z,21.21
2022-10-06T14:13:14.809Z,21.05
2022-10-06T14:15:47.291Z,20.93
2022-10-06T14:18:27.676Z,20.82
2022-10-06T14:20:56.427Z,20.72
2022-10-06T14:23:32.970Z,20.64
2022-10-06T14:25:59.642Z,20.67
2022-10-06T14:28:26.171Z,20.74
2022-10-06T14:30:52.863Z,20.78
2022-10-06T14:33:19.588Z,20.85
2022-10-06T14:35:46.076Z,20.95
2022-10-06T14:38:12.612Z,21.09
2022-10-06T14:40:43.348Z,21.18
2022-10-06T14:43:10.605Z,21.26
2022-10-06T14:45:44.843Z,21.37
2022-10-06T14:48:12.726Z,21.40
2022-10-06T14:50:39.252Z,21.40
2022-10-06T14:53:05.752Z,21.46
2022-10-06T14:55:32.313Z,21.74
2022-10-06T14:57:59.055Z,21.93
2022-10-06T15:00:26.598Z,21.86
2022-10-06T15:02:53.241Z,21.74
2022-10-06T15:05:19.999Z,21.73
2022-10-06T15:07:46.565Z,22.36
2022-10-06T15:10:13.179Z,22.87
2022-10-06T15:12:39.717Z,22.83
2022-10-06T15:15:06.766Z,23.02
2022-10-06T15:17:33.213Z,23.17
2022-10-06T15:19:59.739Z,23.27
2022-10-06T15:22:26.279Z,23.43
2022-10-06T15:24:52.721Z,23.35
2022-10-06T15:27:23.875Z,23.14
2022-10-06T15:29:51.320Z,22.60
2022-10-06T15:32:17.764Z,21.97
2022-10-06T15:34:44.215Z,21.44
2022-10-06T15:37:10.811Z,21.02
2022-10-06T15:39:37.646Z,20.72
2022-10-06T15:42:05.032Z,20.47
2022-10-06T15:44:32.511Z,20.21
2022-10-06T15:46:59.171Z,20.01
2022-10-06T15:49:27.554Z,19.82
2022-10-06T15:51:56.644Z,19.62
2022-10-06T15:54:41.532Z,19.42
2022-10-06T15:57:11.579Z,19.20
2022-10-06T15:59:40.599Z,19.00
2022-10-06T16:02:14.686Z,18.79
2022-10-06T16:04:42.048Z,18.51
2022-10-06T16:07:11.966Z,18.25
2022-10-06T16:09:43.350Z,18.03
2022-10-06T16:12:11.787Z,17.83
2022-10-06T16:14:38.511Z,17.64
2022-10-06T16:17:07.146Z,17.47
2022-10-06T16:19:34.252Z,17.26
2022-10-06T16:22:01.842Z,17.06
2022-10-06T16:24:28.457Z,16.85
2022-10-06T16:26:54.998Z,16.62
2022-10-06T16:29:22.154Z,16.40
2022-10-06T16:31:48.862Z,16.23
2022-10-06T16:34:16.472Z,16.06
2022-10-06T16:36:43.007Z,15.90
2022-10-06T16:39:21.525Z,15.74
2022-10-06T16:41:49.019Z,15.61
2022-10-06T16:44:15.832Z,15.49
2022-10-06T16:46:43.758Z,15.37
2022-10-06T16:49:10.466Z,15.28
2022-10-06T16:51:42.935Z,15.19
2022-10-06T16:54:11.987Z,15.10
2022-10-06T16:56:43.390Z,15.02
2022-10-06T16:59:16.035Z,14.97
2022-10-06T17:01:43.120Z,14.93
2022-10-06T17:04:14.371Z,14.89
2022-10-06T17:06:46.736Z,14.86
2022-10-06T17:09:16.461Z,14.84
2022-10-06T17:11:45.772Z,14.84
2022-10-06T17:14:12.785Z,14.83
2022-10-06T17:16:41.488Z,14.81
2022-10-06T17:19:08.058Z,14.77
2022-10-06T17:21:55.730Z,14.76
2022-10-06T17:24:21.432Z,14.75
2022-10-06T17:26:49.481Z,14.73
2022-10-06T17:29:21.584Z,14.69
2022-10-06T17:31:50.186Z,14.65
2022-10-06T17:34:21.062Z,14.63
2022-10-06T17:36:50.108Z,14.58
2022-10-06T17:39:19.005Z,14.54
2022-10-06T17:41:48.217Z,14.49
2022-10-06T17:44:17.690Z,14.43
2022-10-06T17:46:45.355Z,14.37
2022-10-06T17:49:14.250Z,14.30
2022-10-06T17:51:42.881Z,14.23
2022-10-06T17:54:11.549Z,14.15
2022-10-06T17:56:38.691Z,14.07
2022-10-06T17:59:07.630Z,13.98
2022-10-06T18:02:09.239Z,13.93
2022-10-06T18:04:35.721Z,13.87
2022-10-06T18:07:02.232Z,13.85
2022-10-06T18:09:28.672Z,13.81
2022-10-06T18:11:55.211Z,13.77
2022-10-06T18:14:24.593Z,13.72
2022-10-06T18:16:56.065Z,13.65
2022-10-06T18:19:25.905Z,13.57
2022-10-06T18:21:54.595Z,13.50
2022-10-06T18:24:23.285Z,13.43
2022-10-06T18:26:52.515Z,13.37
2022-10-06T18:29:21.969Z,13.35
2022-10-06T18:31:50.316Z,13.35
2022-10-06T18:35:57.684Z,13.35
2022-10-06T18:37:03.928Z,13.36
2022-10-06T18:39:30.371Z,13.37
2022-10-06T18:41:56.801Z,13.37
2022-10-06T18:44:23.205Z,13.37
2022-10-06T18:46:49.674Z,13.39
2022-10-06T18:49:19.391Z,13.41
2022-10-06T18:51:47.161Z,13.42
2022-10-06T18:54:25.008Z,13.43
2022-10-06T18:56:51.513Z,13.43
2022-10-06T18:59:20.869Z,13.43
2022-10-06T19:01:48.622Z,13.43
2022-10-06T19:04:20.347Z,13.42
2022-10-06T19:06:50.199Z,13.41
2022-10-06T19:09:18.859Z,13.41
2022-10-06T19:11:47.361Z,13.42
2022-10-06T19:14:28.042Z,13.42
2022-10-06T19:17:05.829Z,13.44
2022-10-06T19:19:33.178Z,13.43
2022-10-06T19:22:02.148Z,13.45
2022-10-06T19:24:37.884Z,13.48
2022-10-06T19:27:07.889Z,13.49
2022-10-06T19:29:34.399Z,13.51
2022-10-06T19:32:01.278Z,13.51
2022-10-06T19:34:27.891Z,13.50
2022-10-06T19:36:54.532Z,13.50
2022-10-06T19:39:26.762Z,13.50
2022-10-06T19:41:53.966Z,13.51
2022-10-06T19:44:20.733Z,13.50
2022-10-06T19:46:47.253Z,13.49
2022-10-06T19:49:13.800Z,13.49
2022-10-06T19:51:40.543Z,13.49
2022-10-06T19:54:08.832Z,13.48
2022-10-06T19:56:35.373Z,13.47
2022-10-06T19:59:03.466Z,13.45
2022-10-06T20:01:30.364Z,13.43
2022-10-06T20:03:57.284Z,13.42
2022-10-06T20:06:24.621Z,13.44
2022-10-06T20:08:52.110Z,13.46
2022-10-06T20:11:22.004Z,13.47
2022-10-06T20:13:49.679Z,13.50
2022-10-06T20:16:18.909Z,13.52
2022-10-06T20:18:48.382Z,13.55
2022-10-06T20:21:18.119Z,13.57
2022-10-06T20:23:53.348Z,13.57
2022-10-06T20:26:22.062Z,13.59
2022-10-06T20:28:49.425Z,13.59
2022-10-06T20:31:25.227Z,13.60
2022-10-06T20:33:58.254Z,13.61
2022-10-06T20:36:26.354Z,13.61
2022-10-06T20:38:53.475Z,13.60
2022-10-06T20:41:19.911Z,13.60
2022-10-06T20:43:46.454Z,13.60
2022-10-06T20:46:12.950Z,13.61
2022-10-06T20:48:39.534Z,13.61
2022-10-06T20:51:10.784Z,13.62
2022-10-06T20:53:37.325Z,13.64
2022-10-06T20:56:03.967Z,13.67
2022-10-06T20:58:30.512Z,13.68
2022-10-06T21:01:04.024Z,13.70
2022-10-06T21:03:30.668Z,13.71
2022-10-06T21:05:57.273Z,13.71
2022-10-06T21:08:23.748Z,13.71
2022-10-06T21:11:01.127Z,13.72
2022-10-06T21:13:29.132Z,13.74
2022-10-06T21:15:59.761Z,13.76
2022-10-06T21:18:26.703Z,13.78
2022-10-06T21:21:01.491Z,13.78
2022-10-06T21:23:29.413Z,13.76
2022-10-06T21:25:56.879Z,13.76
2022-10-06T21:28:23.840Z,13.74
2022-10-06T21:30:50.631Z,13.75
2022-10-06T21:33:17.520Z,13.75
2022-10-06T21:35:44.066Z,13.76
2022-10-06T21:38:13.478Z,13.75
2022-10-06T21:40:40.024Z,13.74
2022-10-06T21:43:06.563Z,13.73
2022-10-06T21:45:33.301Z,13.72
2022-10-06T21:47:59.955Z,13.72
2022-10-06T21:50:26.499Z,13.72
2022-10-06T21:52:53.038Z,13.72
2022-10-06T21:55:19.689Z,13.71
2022-10-06T21:57:46.562Z,13.71
2022-10-06T22:00:14.003Z,13.69
2022-10-06T22:02:40.693Z,13.65
2022-10-06T22:05:07.907Z,13.64
2022-10-06T22:07:34.446Z,13.62
2022-10-06T22:10:00.987Z,13.61
2022-10-06T22:12:27.530Z,13.60
2022-10-06T22:14:54.070Z,13.61
2022-10-06T22:17:20.612Z,13.61
2022-10-06T22:19:47.156Z,13.62
2022-10-06T22:22:13.700Z,13.62
2022-10-06T22:24:40.257Z,13.63
2022-10-06T22:27:06.780Z,13.61
2022-10-06T22:29:33.427Z,13.59
2022-10-06T22:32:00.042Z,13.57
2022-10-06T22:34:27.230Z,13.55
2022-10-06T22:36:53.770Z,13.53
2022-10-06T22:39:20.227Z,13.51
2022-10-06T22:41:46.865Z,13.48
2022-10-06T22:44:13.398Z,13.45
2022-10-06T22:46:40.022Z,13.42
2022-10-06T22:49:06.695Z,13.41
2022-10-06T22:51:34.045Z,13.39
2022-10-06T22:54:00.785Z,13.36
2022-10-06T22:56:29.790Z,13.35
2022-10-06T22:58:56.532Z,13.34
2022-10-06T23:01:23.080Z,13.35
2022-10-06T23:03:49.613Z,13.36
2022-10-06T23:06:17.768Z,13.35
2022-10-06T23:08:44.952Z,13.35
2022-10-06T23:11:17.495Z,13.35
2022-10-06T23:13:44.479Z,13.36
2022-10-06T23:16:13.762Z,13.35
2022-10-06T23:18:45.482Z,13.34
2022-10-06T23:21:13.420Z,13.32
2022-10-06T23:23:40.059Z,13.29
2022-10-06T23:26:09.362Z,13.26
2022-10-06T23:28:36.059Z,13.25
2022-10-06T23:31:05.482Z,13.25
2022-10-06T23:33:33.283Z,13.24
2022-10-06T23:36:05.466Z,13.24
2022-10-06T23:38:32.820Z,13.24
2022-10-06T23:40:59.359Z,13.23
2022-10-06T23:43:25.901Z,13.23
2022-10-06T23:45:52.514Z,13.23
2022-10-06T23:48:19.287Z,13.22
2022-10-06T23:51:04.512Z,13.21
2022-10-06T23:53:31.621Z,13.20
2022-10-06T23:55:58.882Z,13.18
2022-10-06T23:58:26.351Z,13.17
